createdAt,value
2022-09-05T00:00:31.159Z,10.40
2022-09-05T00:03:14.557Z,8.77
2022-09-05T00:06:03.624Z,8.20
2022-09-05T00:08:44.143Z,9.57
2022-09-05T00:11:42.785Z,7.83
2022-09-05T00:14:35.277Z,9.40
2022-09-05T00:18:11.976Z,9.57
2022-09-05T00:24:26.075Z,7.53
2022-09-05T00:24:30.904Z,7.43
2022-09-05T00:26:23.125Z,9.37
2022-09-05T00:29:01.944Z,8.73
2022-09-05T00:31:54.603Z,8.13
2022-09-05T00:34:47.901Z,7.23
2022-09-05T00:37:32.109Z,7.43
2022-09-05T00:40:21.610Z,8.90
2022-09-05T00:42:54.617Z,7.20
2022-09-05T00:45:32.782Z,5.90
2022-09-05T00:48:15.273Z,5.97
2022-09-05T00:51:01.797Z,5.80
2022-09-05T00:53:43.093Z,6.50
2022-09-05T00:56:33.936Z,6.77
2022-09-05T00:59:43.386Z,6.67
2022-09-05T01:02:51.246Z,6.17
2022-09-05T01:05:44.742Z,7.53
2022-09-05T01:08:46.409Z,6.43
2022-09-05T01:11:28.606Z,5.77
2022-09-05T01:14:12.995Z,6.07
2022-09-05T01:17:16.717Z,7.47
2022-09-05T01:20:19.081Z,6.20
2022-09-05T01:23:51.312Z,6.33
2022-09-05T01:26:52.926Z,6.33
2022-09-05T01:29:29.029Z,7.93
2022-09-05T01:32:28.404Z,6.80
2022-09-05T01:35:22.923Z,6.30
2022-09-05T01:37:58.732Z,7.87
2022-09-05T01:40:35.491Z,6.87
2022-09-05T01:43:19.230Z,6.60
2022-09-05T01:45:52.626Z,7.13
2022-09-05T01:48:34.861Z,6.90
2022-09-05T01:51:29.561Z,6.90
2022-09-05T01:54:24.632Z,6.30
2022-09-05T01:57:09.214Z,6.43
2022-09-05T01:59:48.292Z,6.17
2022-09-05T02:02:33.337Z,7.57
2022-09-05T02:05:48.178Z,10.30
2022-09-05T02:08:48.960Z,7.70
2022-09-05T02:11:34.924Z,6.60
2022-09-05T02:14:12.000Z,7.73
2022-09-05T02:16:56.885Z,6.97
2022-09-05T02:19:32.528Z,10.70
2022-09-05T02:22:08.875Z,7.93
2022-09-05T02:24:39.565Z,7.50
2022-09-05T02:27:30.227Z,7.23
2022-09-05T02:30:12.620Z,7.73
2022-09-05T02:32:49.624Z,7.20
2022-09-05T02:35:29.582Z,7.97
2022-09-05T02:41:47.174Z,8.73
2022-09-05T02:45:12.661Z,7.57
2022-09-05T02:45:13.702Z,7.13
2022-09-05T02:46:55.794Z,8.00
2022-09-05T02:57:11.206Z,7.60
2022-09-05T02:57:28.115Z,8.07
2022-09-05T02:57:37.224Z,9.33
2022-09-05T02:59:05.816Z,7.40
2022-09-05T03:01:53.143Z,9.17
2022-09-05T03:04:34.802Z,6.93
2022-09-05T03:07:29.337Z,7.07
2022-09-05T03:10:39.659Z,8.00
2022-09-05T03:13:58.995Z,7.80
2022-09-05T03:17:16.330Z,7.80
2022-09-05T03:20:42.097Z,8.30
2022-09-05T03:23:59.830Z,7.53
2022-09-05T03:27:37.263Z,7.57
2022-09-05T03:30:14.915Z,8.50
2022-09-05T03:33:36.846Z,7.90
2022-09-05T03:37:07.022Z,8.10
2022-09-05T03:40:16.347Z,8.00
2022-09-05T03:43:03.803Z,7.83
2022-09-05T03:45:59.822Z,8.60
2022-09-05T03:50:47.904Z,8.70
2022-09-05T03:57:11.159Z,9.00
2022-09-05T03:57:25.522Z,8.87
2022-09-05T03:58:56.232Z,10.37
2022-09-05T04:04:27.464Z,9.10
2022-09-05T04:08:17.040Z,12.40
2022-09-05T04:08:18.932Z,8.67
2022-09-05T04:10:29.408Z,9.10
2022-09-05T04:13:03.974Z,10.97
2022-09-05T04:15:39.880Z,10.13
2022-09-05T04:18:33.504Z,10.57
2022-09-05T04:21:09.629Z,8.80
2022-09-05T04:24:02.416Z,10.43
2022-09-05T04:27:00.524Z,8.57
2022-09-05T04:29:43.865Z,8.80
2022-09-05T04:32:24.868Z,9.10
2022-09-05T04:35:15.450Z,9.00
2022-09-05T04:37:55.237Z,8.53
2022-09-05T04:40:41.317Z,8.57
2022-09-05T04:43:20.897Z,8.83
2022-09-05T04:45:54.598Z,9.07
2022-09-05T04:48:28.039Z,9.10
2022-09-05T04:51:08.307Z,8.90
2022-09-05T04:54:07.862Z,14.80
2022-09-05T04:56:42.728Z,8.90
2022-09-05T05:02:33.559Z,8.80
2022-09-05T05:06:02.739Z,8.73
2022-09-05T05:06:11.905Z,9.07
2022-09-05T05:08:31.742Z,8.80
2022-09-05T05:13:33.574Z,10.50
2022-09-05T05:17:56.050Z,8.97
2022-09-05T05:18:07.039Z,10.20
2022-09-05T05:20:41.829Z,9.23
2022-09-05T05:23:07.546Z,9.70
2022-09-05T05:25:50.458Z,9.77
2022-09-05T05:28:28.583Z,11.57
2022-09-05T05:31:01.828Z,9.57
2022-09-05T05:33:36.413Z,9.53
2022-09-05T05:36:08.372Z,9.30
2022-09-05T05:38:45.032Z,8.90
2022-09-05T05:41:22.484Z,9.40
2022-09-05T05:43:52.597Z,9.33
2022-09-05T05:46:36.425Z,12.47
2022-09-05T05:49:28.292Z,10.93
2022-09-05T05:52:24.567Z,9.27
2022-09-05T05:55:14.065Z,9.50
2022-09-05T05:58:15.562Z,9.90
2022-09-05T06:01:41.706Z,9.47
2022-09-05T06:05:16.260Z,8.83
2022-09-05T06:09:14.123Z,10.63
2022-09-05T06:15:00.481Z,11.20
2022-09-05T06:15:26.626Z,10.57
2022-09-05T06:18:42.601Z,9.57
2022-09-05T06:22:09.393Z,9.40
2022-09-05T06:25:22.064Z,9.20
2022-09-05T06:28:18.751Z,9.47
2022-09-05T06:31:22.543Z,9.73
2022-09-05T06:34:00.579Z,9.50
2022-09-05T06:36:57.982Z,10.17
2022-09-05T06:39:54.151Z,8.90
2022-09-05T06:42:42.643Z,9.40
2022-09-05T06:45:58.699Z,10.13
2022-09-05T06:48:46.033Z,9.10
2022-09-05T06:52:27.816Z,9.20
2022-09-05T06:55:35.103Z,8.77
2022-09-05T06:59:09.631Z,8.93
2022-09-05T07:01:59.937Z,8.77
2022-09-05T07:05:24.397Z,9.30
2022-09-05T07:07:42.455Z,8.30
2022-09-05T07:10:37.997Z,10.30
2022-09-05T07:13:16.429Z,8.67
2022-09-05T07:15:55.572Z,8.80
2022-09-05T07:18:34.904Z,8.93
2022-09-05T07:21:18.081Z,8.87
2022-09-05T07:24:08.978Z,10.40
2022-09-05T07:26:51.839Z,9.17
2022-09-05T07:29:28.067Z,10.17
2022-09-05T07:31:57.593Z,9.43
2022-09-05T07:34:30.220Z,9.40
2022-09-05T07:37:15.407Z,9.07
2022-09-05T07:39:51.711Z,9.33
2022-09-05T07:42:27.394Z,8.80
2022-09-05T07:44:59.566Z,8.93
2022-09-05T07:47:31.754Z,8.97
2022-09-05T07:51:07.688Z,8.70
2022-09-05T07:56:56.861Z,9.50
2022-09-05T07:57:00.664Z,9.60
2022-09-05T07:58:49.689Z,9.80
2022-09-05T08:01:22.828Z,10.03
2022-09-05T08:03:57.192Z,8.83
2022-09-05T08:06:48.001Z,8.53
2022-09-05T08:10:06.010Z,8.27
2022-09-05T08:12:18.073Z,9.57
2022-09-05T08:15:10.280Z,9.35
2022-09-05T08:17:58.587Z,8.90
2022-09-05T08:20:35.562Z,8.57
2022-09-05T08:23:14.195Z,8.48
2022-09-05T08:25:57.975Z,7.63
2022-09-05T08:28:38.862Z,8.90
2022-09-05T08:31:14.303Z,7.93
2022-09-05T08:33:43.449Z,11.43
2022-09-05T08:36:25.137Z,7.68
2022-09-05T08:38:54.211Z,9.50
2022-09-05T08:41:49.512Z,9.63
2022-09-05T08:46:43.069Z,8.50
2022-09-05T08:47:25.992Z,9.75
2022-09-05T08:50:26.862Z,8.57
2022-09-05T08:53:18.681Z,8.45
2022-09-05T08:56:10.174Z,7.78
2022-09-05T08:59:32.111Z,7.70
2022-09-05T09:02:45.283Z,7.22
2022-09-05T09:05:14.648Z,8.77
2022-09-05T09:07:51.346Z,7.65
2022-09-05T09:10:40.645Z,7.93
2022-09-05T09:13:28.545Z,8.63
2022-09-05T09:16:06.530Z,10.75
2022-09-05T09:19:00.260Z,6.85
2022-09-05T09:21:37.432Z,6.93
2022-09-05T09:24:20.760Z,6.20
2022-09-05T09:26:56.674Z,12.13
2022-09-05T09:29:26.732Z,14.60
2022-09-05T09:32:07.230Z,6.82
2022-09-05T09:34:58.268Z,6.22
2022-09-05T09:37:59.638Z,6.82
2022-09-05T09:41:07.877Z,11.30
2022-09-05T09:44:03.481Z,11.73
2022-09-05T09:46:41.979Z,6.35
2022-09-05T09:49:43.573Z,6.28
2022-09-05T09:53:27.503Z,7.05
2022-09-05T09:56:39.600Z,12.10
2022-09-05T09:59:30.067Z,8.85
2022-09-05T10:04:54.282Z,5.15
2022-09-05T10:10:39.305Z,6.30
2022-09-05T10:10:51.893Z,4.97
2022-09-05T10:12:15.729Z,4.63
2022-09-05T10:15:06.538Z,4.93
2022-09-05T10:18:33.400Z,5.18
2022-09-05T10:22:34.472Z,7.85
2022-09-05T10:25:16.506Z,8.40
2022-09-05T10:28:06.650Z,4.65
2022-09-05T10:32:25.972Z,6.18
2022-09-05T10:35:05.902Z,5.38
2022-09-05T10:36:31.242Z,5.63
2022-09-05T10:39:16.641Z,7.53
2022-09-05T10:41:51.030Z,7.05
2022-09-05T10:44:32.029Z,6.93
2022-09-05T10:47:12.116Z,6.13
2022-09-05T10:49:45.343Z,3.80
2022-09-05T10:52:22.530Z,3.95
2022-09-05T10:55:18.610Z,4.25
2022-09-05T10:58:05.574Z,5.68
2022-09-05T11:02:22.026Z,4.25
2022-09-05T11:03:53.811Z,6.35
2022-09-05T11:06:44.977Z,4.95
2022-09-05T11:09:26.067Z,4.80
2022-09-05T11:12:05.688Z,7.05
2022-09-05T11:14:49.401Z,8.90
2022-09-05T11:17:30.514Z,5.10
2022-09-05T11:20:35.383Z,6.18
2022-09-05T11:23:12.714Z,5.90
2022-09-05T11:25:41.487Z,9.27
2022-09-05T11:28:17.157Z,4.82
2022-09-05T11:30:54.225Z,4.30
2022-09-05T11:39:46.222Z,4.53
2022-09-05T11:40:02.804Z,3.65
2022-09-05T11:40:31.418Z,4.07
2022-09-05T11:43:51.592Z,3.50
2022-09-05T11:46:38.198Z,4.60
2022-09-05T11:49:52.763Z,3.15
2022-09-05T11:52:59.419Z,6.80
2022-09-05T11:56:00.958Z,3.60
2022-09-05T11:59:07.882Z,3.90
2022-09-05T12:01:51.595Z,3.72
2022-09-05T12:04:41.913Z,3.65
2022-09-05T12:07:35.439Z,3.70
2022-09-05T12:10:45.753Z,5.70
2022-09-05T12:13:32.190Z,6.28
2022-09-05T12:16:08.278Z,6.20
2022-09-05T12:18:48.969Z,4.93
2022-09-05T12:21:31.862Z,3.42
2022-09-05T12:25:16.860Z,6.43
2022-09-05T12:27:44.199Z,3.20
2022-09-05T12:30:00.257Z,3.88
2022-09-05T12:36:04.903Z,3.15
2022-09-05T12:36:05.483Z,5.97
2022-09-05T12:40:54.550Z,4.88
2022-09-05T12:41:45.266Z,3.85
2022-09-05T12:44:44.293Z,6.18
2022-09-05T12:47:17.075Z,4.18
2022-09-05T12:50:02.942Z,5.05
2022-09-05T12:52:44.126Z,3.45
2022-09-05T12:55:22.383Z,4.25
2022-09-05T13:02:55.277Z,4.60
2022-09-05T13:03:06.578Z,6.10
2022-09-05T13:04:16.081Z,6.15
2022-09-05T13:06:42.491Z,3.85
2022-09-05T13:09:22.329Z,4.13
2022-09-05T13:14:54.225Z,4.50
2022-09-05T13:15:11.523Z,4.07
2022-09-05T13:17:52.244Z,4.32
2022-09-05T13:20:32.453Z,7.28
2022-09-05T13:23:07.825Z,5.25
2022-09-05T13:25:37.844Z,4.78
2022-09-05T13:28:11.045Z,3.10
2022-09-05T13:37:54.659Z,3.00
2022-09-05T13:37:58.028Z,4.07
2022-09-05T13:38:04.720Z,3.38
2022-09-05T13:39:28.175Z,3.20
2022-09-05T13:42:03.621Z,3.42
2022-09-05T13:44:40.367Z,4.75
2022-09-05T13:47:29.733Z,3.25
2022-09-05T13:50:20.056Z,4.43
2022-09-05T13:52:55.351Z,2.88
2022-09-05T13:55:44.069Z,2.97
2022-09-05T13:58:21.542Z,5.00
2022-09-05T14:01:34.922Z,5.97
2022-09-05T14:05:16.306Z,5.32
2022-09-05T14:08:34.388Z,4.18
2022-09-05T14:11:48.807Z,7.95
2022-09-05T14:17:51.101Z,4.47
2022-09-05T14:20:37.581Z,3.80
2022-09-05T14:23:10.052Z,8.13
2022-09-05T14:25:42.871Z,4.65
2022-09-05T14:28:19.159Z,4.90
2022-09-05T14:34:52.016Z,2.97
2022-09-05T14:37:42.241Z,6.47
2022-09-05T14:37:59.995Z,4.00
2022-09-05T14:40:29.789Z,6.40
2022-09-05T14:43:47.521Z,4.50
2022-09-05T14:46:49.723Z,2.05
2022-09-05T14:49:53.252Z,3.97
2022-09-05T14:52:26.656Z,2.22
2022-09-05T15:02:43.970Z,5.85
2022-09-05T15:02:52.912Z,7.15
2022-09-05T15:06:38.222Z,3.40
2022-09-05T15:11:24.802Z,3.63
2022-09-05T15:12:19.781Z,5.00
2022-09-05T15:15:13.824Z,4.28
2022-09-05T15:17:48.426Z,3.60
2022-09-05T15:20:35.813Z,5.70
2022-09-05T15:23:16.332Z,2.95
2022-09-05T15:25:48.774Z,5.13
2022-09-05T15:28:23.083Z,3.85
2022-09-05T15:31:12.481Z,4.22
2022-09-05T15:33:43.923Z,3.97
2022-09-05T15:36:17.239Z,3.40
2022-09-05T15:38:54.401Z,4.00
2022-09-05T15:41:25.304Z,3.72
2022-09-05T15:44:01.711Z,5.90
2022-09-05T15:46:49.222Z,7.53
2022-09-05T15:49:32.892Z,4.95
2022-09-05T15:52:07.762Z,3.40
2022-09-05T15:54:42.907Z,5.10
2022-09-05T15:57:20.293Z,2.90
2022-09-05T15:59:58.696Z,2.67
2022-09-05T16:02:31.757Z,3.75
2022-09-05T16:08:12.139Z,3.78
2022-09-05T16:10:41.559Z,5.03
2022-09-05T16:12:00.404Z,4.45
2022-09-05T16:14:22.385Z,3.83
2022-09-05T16:23:20.340Z,4.35
2022-09-05T16:23:23.754Z,5.90
2022-09-05T16:23:26.770Z,3.67
2022-09-05T16:25:36.174Z,4.90
2022-09-05T16:28:07.837Z,3.13
2022-09-05T16:30:38.302Z,4.85
2022-09-05T16:33:14.675Z,4.82
2022-09-05T16:35:51.105Z,3.58
2022-09-05T16:38:48.552Z,4.32
2022-09-05T16:41:24.969Z,5.30
2022-09-05T16:43:57.954Z,3.67
2022-09-05T16:46:34.796Z,3.38
2022-09-05T16:49:11.728Z,6.65
2022-09-05T16:51:45.569Z,2.85
2022-09-05T16:54:30.909Z,5.95
2022-09-05T16:57:07.268Z,3.03
2022-09-05T16:59:39.146Z,3.75
2022-09-05T17:02:10.750Z,4.38
2022-09-05T17:05:04.813Z,3.17
2022-09-05T17:07:52.964Z,3.85
2022-09-05T17:10:25.723Z,4.15
2022-09-05T17:12:56.508Z,3.22
2022-09-05T17:15:29.006Z,3.65
2022-09-05T17:18:19.519Z,2.97
2022-09-05T17:20:56.182Z,5.13
2022-09-05T17:29:16.696Z,5.35
2022-09-05T17:29:45.518Z,3.38
2022-09-05T17:32:48.254Z,3.55
2022-09-05T17:35:42.884Z,7.10
2022-09-05T17:38:49.492Z,5.10
2022-09-05T17:42:02.181Z,3.40
2022-09-05T17:44:42.864Z,3.85
2022-09-05T17:47:35.354Z,4.47
2022-09-05T17:50:18.891Z,3.17
2022-09-05T17:53:26.291Z,4.93
2022-09-05T17:56:34.813Z,6.35
2022-09-05T17:59:07.328Z,3.72
2022-09-05T18:01:37.189Z,4.07
2022-09-05T18:04:17.990Z,6.88
2022-09-05T18:06:59.965Z,4.35
2022-09-05T18:09:59.021Z,6.40
2022-09-05T18:13:12.451Z,4.47
2022-09-05T18:16:12.589Z,5.97
2022-09-05T18:19:28.658Z,6.05
2022-09-05T18:21:50.520Z,6.45
2022-09-05T18:24:33.532Z,4.78
2022-09-05T18:28:03.436Z,6.43
2022-09-05T18:30:11.454Z,5.75
2022-09-05T18:32:45.109Z,6.75
2022-09-05T18:35:37.871Z,5.47
2022-09-05T18:38:51.968Z,12.07
2022-09-05T18:41:18.264Z,7.80
2022-09-05T18:44:01.622Z,5.00
2022-09-05T18:46:45.981Z,5.53
2022-09-05T18:50:22.001Z,6.78
2022-09-05T18:52:16.606Z,8.23
2022-09-05T18:56:09.323Z,7.22
2022-09-05T18:57:50.466Z,6.07
2022-09-05T19:00:33.314Z,6.22
2022-09-05T19:03:18.672Z,10.23
2022-09-05T19:05:51.983Z,6.82
2022-09-05T19:08:29.210Z,4.80
2022-09-05T19:11:27.553Z,5.10
2022-09-05T19:13:58.484Z,5.10
2022-09-05T19:16:47.839Z,5.35
2022-09-05T19:19:19.441Z,7.00
2022-09-05T19:22:39.582Z,6.05
2022-09-05T19:24:47.845Z,8.30
2022-09-05T19:28:44.455Z,8.80
2022-09-05T19:36:44.396Z,6.45
2022-09-05T19:37:03.786Z,6.25
2022-09-05T19:37:06.087Z,7.05
2022-09-05T19:38:55.079Z,6.03
2022-09-05T19:47:35.257Z,6.38
2022-09-05T19:47:48.946Z,10.05
2022-09-05T19:47:56.533Z,10.68
2022-09-05T19:50:22.114Z,10.57
2022-09-05T19:52:54.279Z,10.07
2022-09-05T19:55:26.057Z,12.65
2022-09-05T19:58:19.103Z,13.23
2022-09-05T20:01:00.625Z,10.75
2022-09-05T20:03:38.439Z,10.07
2022-09-05T20:06:29.243Z,10.82
2022-09-05T20:09:14.628Z,8.95
2022-09-05T20:11:49.587Z,10.93
2022-09-05T20:14:26.870Z,13.98
2022-09-05T20:16:58.770Z,8.25
2022-09-05T20:19:33.994Z,11.13
2022-09-05T20:22:46.717Z,14.40
2022-09-05T20:24:56.459Z,11.15
2022-09-05T20:27:28.841Z,9.23
2022-09-05T20:30:02.333Z,11.27
2022-09-05T20:32:39.979Z,12.88
2022-09-05T20:38:04.781Z,12.82
2022-09-05T20:43:17.029Z,13.05
2022-09-05T20:43:32.213Z,16.50
2022-09-05T20:43:58.971Z,16.95
2022-09-05T20:50:32.055Z,15.90
2022-09-05T20:54:23.021Z,16.45
2022-09-05T20:54:28.320Z,17.40
2022-09-05T20:55:38.461Z,14.57
2022-09-05T20:58:11.804Z,18.20
2022-09-05T21:01:11.665Z,13.50
2022-09-05T21:03:40.931Z,18.40
2022-09-05T21:06:25.640Z,15.50
2022-09-05T21:08:56.000Z,15.00
2022-09-05T21:11:32.377Z,13.43
2022-09-05T21:14:04.481Z,9.73
2022-09-05T21:16:36.623Z,15.77
2022-09-05T21:19:06.320Z,12.27
2022-09-05T21:21:36.759Z,13.15
2022-09-05T21:24:17.360Z,14.15
2022-09-05T21:26:49.029Z,13.57
2022-09-05T21:29:32.655Z,8.60
2022-09-05T21:32:10.467Z,9.80
2022-09-05T21:34:45.307Z,9.60
2022-09-05T21:37:15.815Z,7.90
2022-09-05T21:40:00.351Z,10.68
2022-09-05T21:47:21.674Z,8.00
2022-09-05T21:47:48.685Z,10.73
2022-09-05T21:48:13.186Z,10.53
2022-09-05T21:50:46.849Z,10.83
2022-09-05T21:57:18.442Z,13.77
2022-09-05T21:59:26.654Z,12.30
2022-09-05T21:59:36.676Z,12.63
2022-09-05T22:02:08.764Z,8.30
2022-09-05T22:04:41.532Z,8.23
2022-09-05T22:07:31.709Z,6.30
2022-09-05T22:10:01.627Z,6.70
2022-09-05T22:12:33.529Z,7.60
2022-09-05T22:15:10.104Z,7.60
2022-09-05T22:17:54.208Z,7.70
2022-09-05T22:20:43.194Z,9.33
2022-09-05T22:23:13.096Z,10.57
2022-09-05T22:25:41.587Z,9.00
2022-09-05T22:28:15.832Z,8.43
2022-09-05T22:30:44.429Z,9.27
2022-09-05T22:33:13.021Z,7.47
2022-09-05T22:35:41.844Z,7.77
2022-09-05T22:38:17.821Z,6.93
2022-09-05T22:40:49.321Z,9.50
2022-09-05T22:43:17.762Z,10.83
2022-09-05T22:45:45.875Z,10.33
2022-09-05T22:48:15.695Z,9.03
2022-09-05T22:50:44.286Z,7.63
2022-09-05T22:53:13.806Z,11.00
2022-09-05T22:55:44.365Z,9.47
2022-09-05T22:58:15.254Z,9.70
2022-09-05T23:00:44.165Z,12.57
2022-09-05T23:03:12.340Z,11.63
2022-09-05T23:05:40.580Z,13.73
2022-09-05T23:08:10.086Z,11.80
2022-09-05T23:10:39.728Z,19.27
2022-09-05T23:13:10.284Z,16.33
2022-09-05T23:15:40.024Z,12.77
2022-09-05T23:18:08.282Z,13.77
2022-09-05T23:20:36.395Z,18.73
2022-09-05T23:23:06.930Z,20.00
2022-09-05T23:25:36.659Z,18.77
2022-09-05T23:28:09.287Z,15.83
2022-09-05T23:30:38.410Z,13.17
2022-09-05T23:33:08.642Z,9.03
2022-09-05T23:35:37.250Z,8.83
2022-09-05T23:38:11.280Z,10.90
2022-09-05T23:40:39.918Z,9.17
2022-09-05T23:43:10.041Z,12.13
2022-09-05T23:45:38.132Z,10.80
2022-09-05T23:48:06.397Z,8.30
2022-09-05T23:50:34.574Z,11.53
2022-09-05T23:53:05.212Z,10.17
2022-09-05T23:55:33.600Z,12.30
2022-09-05T23:58:01.868Z,15.30
